createdAt,value
2023-05-14T00:01:11.453Z,99789.72
2023-05-14T00:04:15.622Z,99776.31
2023-05-14T00:07:18.466Z,99791.56
2023-05-14T00:10:22.163Z,99786.88
2023-05-14T00:13:25.131Z,99786.00
2023-05-14T00:16:27.976Z,99784.66
2023-05-14T00:19:32.173Z,99790.19
2023-05-14T00:22:34.962Z,99782.81
2023-05-14T00:25:37.711Z,99786.66
2023-05-14T00:28:40.528Z,99782.97
2023-05-14T00:31:43.401Z,99771.25
2023-05-14T00:34:47.681Z,99779.63
2023-05-14T00:37:50.412Z,99770.56
2023-05-14T00:40:53.204Z,99766.88
2023-05-14T00:43:55.997Z,99771.63
2023-05-14T00:47:00.297Z,99770.41
2023-05-14T00:50:05.315Z,99769.56
2023-05-14T00:53:10.436Z,99777.09
2023-05-14T00:56:13.315Z,99770.91
2023-05-14T00:59:16.097Z,99767.53
2023-05-14T01:02:18.893Z,99771.56
2023-05-14T01:05:24.650Z,99776.22
2023-05-14T01:08:32.836Z,99774.91
2023-05-14T01:11:41.250Z,99775.22
2023-05-14T01:14:47.600Z,99774.06
2023-05-14T01:17:54.839Z,99781.25
2023-05-14T01:20:59.079Z,99772.88
2023-05-14T01:24:03.153Z,99771.91
2023-05-14T01:27:08.519Z,99767.88
2023-05-14T01:30:15.270Z,99760.50
2023-05-14T01:33:19.224Z,99766.69
2023-05-14T01:36:22.296Z,99762.16
2023-05-14T01:39:27.872Z,99761.34
2023-05-14T01:42:30.875Z,99762.69
2023-05-14T01:45:35.960Z,99762.88
2023-05-14T01:48:38.901Z,99756.34
2023-05-14T01:51:41.850Z,99766.84
2023-05-14T01:54:46.001Z,99765.19
2023-05-14T01:57:48.726Z,99763.88
2023-05-14T02:00:51.522Z,99765.84
2023-05-14T02:03:54.403Z,99773.72
2023-05-14T02:06:57.225Z,99776.56
2023-05-14T02:10:01.396Z,99772.88
2023-05-14T02:13:04.259Z,99771.38
2023-05-14T02:16:07.447Z,99769.25
2023-05-14T02:19:10.334Z,99768.38
2023-05-14T02:22:13.189Z,99774.25
2023-05-14T02:25:17.385Z,99767.09
2023-05-14T02:28:20.182Z,99775.69
2023-05-14T02:31:23.003Z,99778.06
2023-05-14T02:34:26.518Z,99768.03
2023-05-14T02:37:29.285Z,99776.41
2023-05-14T02:40:33.492Z,99772.59
2023-05-14T02:43:36.263Z,99768.91
2023-05-14T02:46:39.107Z,99768.69
2023-05-14T02:49:41.927Z,99771.56
2023-05-14T02:52:44.846Z,99778.94
2023-05-14T02:55:48.986Z,99772.06
2023-05-14T02:58:51.776Z,99772.75
2023-05-14T03:01:54.590Z,99784.44
2023-05-14T03:04:57.862Z,99773.94
2023-05-14T03:08:01.098Z,99774.25
2023-05-14T03:11:05.319Z,99781.63
2023-05-14T03:14:08.050Z,99783.50
2023-05-14T03:17:10.915Z,99780.50
2023-05-14T03:20:14.165Z,99780.31
2023-05-14T03:23:17.996Z,99779.03
2023-05-14T03:26:22.130Z,99780.03
2023-05-14T03:29:24.961Z,99790.59
2023-05-14T03:32:27.847Z,99784.06
2023-05-14T03:35:30.623Z,99786.06
2023-05-14T03:38:33.445Z,99793.66
2023-05-14T03:41:37.815Z,99789.13
2023-05-14T03:44:40.803Z,99801.53
2023-05-14T03:47:43.627Z,99790.13
2023-05-14T03:50:46.422Z,99789.81
2023-05-14T03:53:49.221Z,99789.50
2023-05-14T03:56:53.376Z,99791.19
2023-05-14T03:59:56.126Z,99791.69
2023-05-14T04:02:58.976Z,99788.69
2023-05-14T04:06:02.752Z,99788.69
2023-05-14T04:09:05.459Z,99797.22
2023-05-14T04:12:10.109Z,99787.50
2023-05-14T04:15:13.115Z,99784.66
2023-05-14T04:18:16.057Z,99787.50
2023-05-14T04:21:18.943Z,99785.16
2023-05-14T04:24:21.689Z,99784.53
2023-05-14T04:27:25.906Z,99787.53
2023-05-14T04:30:28.658Z,99794.91
2023-05-14T04:33:31.472Z,99797.06
2023-05-14T04:36:34.278Z,99792.41
2023-05-14T04:39:38.009Z,99785.03
2023-05-14T04:42:42.240Z,99781.50
2023-05-14T04:45:45.031Z,99803.50
2023-05-14T04:48:48.430Z,99794.13
2023-05-14T04:51:51.262Z,99787.91
2023-05-14T04:54:54.193Z,99781.88
2023-05-14T04:57:58.269Z,99793.47
2023-05-14T05:01:01.762Z,99795.97
2023-05-14T05:04:04.630Z,99794.00
2023-05-14T05:07:07.424Z,99790.47
2023-05-14T05:10:10.609Z,99795.31
2023-05-14T05:13:17.037Z,99801.34
2023-05-14T05:16:19.863Z,99795.66
2023-05-14T05:19:32.166Z,99793.47
2023-05-14T05:22:42.762Z,99796.16
2023-05-14T05:25:45.598Z,99796.03
2023-05-14T05:28:49.766Z,99799.72
2023-05-14T05:31:52.618Z,99799.38
2023-05-14T05:34:55.522Z,99801.88
2023-05-14T05:38:01.125Z,99797.56
2023-05-14T05:41:04.483Z,99797.03
2023-05-14T05:44:08.731Z,99795.06
2023-05-14T05:47:11.510Z,99792.19
2023-05-14T05:50:15.114Z,99795.22
2023-05-14T05:53:17.937Z,99793.56
2023-05-14T05:56:21.227Z,99791.38
2023-05-14T05:59:25.465Z,99787.66
2023-05-14T06:02:28.287Z,99794.06
2023-05-14T06:05:31.243Z,99793.56
2023-05-14T06:08:34.055Z,99784.97
2023-05-14T06:11:36.810Z,99789.88
2023-05-14T06:14:40.968Z,99786.50
2023-05-14T06:17:43.731Z,99777.63
2023-05-14T06:20:46.549Z,99780.13
2023-05-14T06:23:49.297Z,99780.47
2023-05-14T06:26:52.038Z,99778.44
2023-05-14T06:29:56.345Z,99776.59
2023-05-14T06:32:59.143Z,99784.84
2023-05-14T06:36:02.292Z,99778.63
2023-05-14T06:39:05.089Z,99770.22
2023-05-14T06:42:07.992Z,99780.13
2023-05-14T06:45:12.696Z,99782.31
2023-05-14T06:48:15.614Z,99781.31
2023-05-14T06:51:18.525Z,99780.63
2023-05-14T06:54:21.580Z,99776.78
2023-05-14T06:57:24.378Z,99778.31
2023-05-14T07:00:28.883Z,99778.78
2023-05-14T07:03:31.672Z,99777.94
2023-05-14T07:06:34.488Z,99783.31
2023-05-14T07:09:37.273Z,99761.13
2023-05-14T07:12:40.014Z,99775.59
2023-05-14T07:15:44.199Z,99773.22
2023-05-14T07:18:46.926Z,99774.09
2023-05-14T07:21:49.731Z,99768.22
2023-05-14T07:24:52.470Z,99766.88
2023-05-14T07:27:55.921Z,99773.41
2023-05-14T07:31:00.275Z,99767.72
2023-05-14T07:34:03.130Z,99772.91
2023-05-14T07:37:06.152Z,99769.56
2023-05-14T07:40:09.528Z,99768.53
2023-05-14T07:43:12.340Z,99766.34
2023-05-14T07:46:17.765Z,99770.56
2023-05-14T07:49:20.536Z,99764.50
2023-05-14T07:52:23.353Z,99756.09
2023-05-14T07:55:26.141Z,99753.91
2023-05-14T07:58:29.037Z,99751.41
2023-05-14T08:01:33.280Z,99757.63
2023-05-14T08:04:36.258Z,99751.59
2023-05-14T08:07:39.256Z,99750.03
2023-05-14T08:10:42.103Z,99756.59
2023-05-14T08:13:45.032Z,99748.53
2023-05-14T08:16:49.234Z,99750.72
2023-05-14T08:19:51.999Z,99748.38
2023-05-14T08:22:57.549Z,99746.19
2023-05-14T08:26:00.453Z,99743.47
2023-05-14T08:29:03.357Z,99738.31
2023-05-14T08:32:19.283Z,99741.44
2023-05-14T08:35:25.982Z,99732.22
2023-05-14T08:38:28.829Z,99739.97
2023-05-14T08:41:31.752Z,99728.72
2023-05-14T08:44:37.862Z,99727.53
2023-05-14T08:47:42.116Z,99725.16
2023-05-14T08:50:45.294Z,99724.00
2023-05-14T08:53:49.320Z,99721.97
2023-05-14T08:56:52.785Z,99712.91
2023-05-14T08:59:56.054Z,99710.41
2023-05-14T09:03:01.055Z,99714.28
2023-05-14T09:06:04.285Z,99703.19
2023-05-14T09:09:07.222Z,99708.22
2023-05-14T09:12:11.184Z,99702.47
2023-05-14T09:15:14.245Z,99702.34
2023-05-14T09:18:18.615Z,99707.22
2023-05-14T09:21:22.730Z,99712.94
2023-05-14T09:24:27.140Z,99720.16
2023-05-14T09:27:30.922Z,99718.84
2023-05-14T09:30:35.042Z,99709.06
2023-05-14T09:33:39.245Z,99696.31
2023-05-14T09:36:42.061Z,99703.00
2023-05-14T09:39:44.932Z,99695.94
2023-05-14T09:42:48.395Z,99701.31
2023-05-14T09:45:51.431Z,99695.47
2023-05-14T09:48:56.792Z,99684.91
2023-05-14T09:51:59.629Z,99678.81
2023-05-14T09:55:02.646Z,99677.81
2023-05-14T09:58:06.090Z,99676.66
2023-05-14T10:01:09.372Z,99675.81
2023-05-14T10:04:13.918Z,99676.47
2023-05-14T10:07:18.656Z,99674.78
2023-05-14T10:10:22.547Z,99671.94
2023-05-14T10:13:29.961Z,99669.06
2023-05-14T10:16:35.109Z,99670.06
2023-05-14T10:19:41.153Z,99664.38
2023-05-14T10:22:44.006Z,99664.00
2023-05-14T10:25:47.053Z,99664.84
2023-05-14T10:28:50.053Z,99660.81
2023-05-14T10:31:54.853Z,99660.44
2023-05-14T10:34:59.680Z,99659.25
2023-05-14T10:38:02.468Z,99652.19
2023-05-14T10:41:06.111Z,99650.84
2023-05-14T10:44:10.046Z,99650.34
2023-05-14T10:47:13.000Z,99649.00
2023-05-14T10:50:17.787Z,99650.84
2023-05-14T10:53:21.237Z,99656.22
2023-05-14T10:56:24.051Z,99655.19
2023-05-14T10:59:28.351Z,99654.38
2023-05-14T11:02:32.258Z,99661.41
2023-05-14T11:05:37.655Z,99652.16
2023-05-14T11:08:41.099Z,99660.63
2023-05-14T11:11:44.019Z,99648.75
2023-05-14T11:14:47.952Z,99655.25
2023-05-14T11:17:52.361Z,99644.22
2023-05-14T11:20:59.074Z,99650.09
2023-05-14T11:24:01.858Z,99650.94
2023-05-14T11:27:05.827Z,99651.31
2023-05-14T11:30:13.540Z,99652.97
2023-05-14T11:33:17.059Z,99661.69
2023-05-14T11:36:21.565Z,99644.53
2023-05-14T11:39:24.392Z,99650.22
2023-05-14T11:42:27.254Z,99648.06
2023-05-14T11:45:30.431Z,99643.38
2023-05-14T11:48:33.299Z,99644.56
2023-05-14T11:51:37.426Z,99637.56
2023-05-14T11:54:40.360Z,99629.31
2023-05-14T11:57:43.305Z,99631.84
2023-05-14T12:00:46.083Z,99633.91
2023-05-14T12:03:49.012Z,99624.50
2023-05-14T12:06:53.844Z,99636.47
2023-05-14T12:10:01.523Z,99636.16
2023-05-14T12:13:08.070Z,99631.41
2023-05-14T12:16:11.050Z,99624.69
2023-05-14T12:19:15.774Z,99634.94
2023-05-14T12:22:21.139Z,99634.94
2023-05-14T12:25:26.734Z,99629.38
2023-05-14T12:28:29.720Z,99637.13
2023-05-14T12:31:32.952Z,99633.91
2023-05-14T12:34:37.385Z,99634.91
2023-05-14T12:41:15.799Z,99636.88
2023-05-14T12:44:18.906Z,99647.31
2023-05-14T12:47:21.824Z,99644.50
2023-05-14T12:50:24.962Z,99650.91
2023-05-14T12:53:28.056Z,99638.09
2023-05-14T12:56:32.237Z,99636.88
2023-05-14T12:59:35.020Z,99638.47
2023-05-14T13:02:43.054Z,99633.41
2023-05-14T13:05:46.548Z,99638.34
2023-05-14T13:08:49.327Z,99645.84
2023-05-14T13:11:53.474Z,99630.19
2023-05-14T13:14:56.238Z,99635.84
2023-05-14T13:17:59.070Z,99632.00
2023-05-14T13:21:04.339Z,99630.31
2023-05-14T13:24:07.373Z,99629.94
2023-05-14T13:27:11.506Z,99632.44
2023-05-14T13:30:14.494Z,99624.88
2023-05-14T13:33:20.121Z,99628.59
2023-05-14T13:36:22.939Z,99632.94
2023-05-14T13:39:27.337Z,99630.91
2023-05-14T13:42:31.638Z,99637.94
2023-05-14T13:45:34.444Z,99636.94
2023-05-14T13:48:37.499Z,99641.66
2023-05-14T13:51:40.309Z,99638.97
2023-05-14T13:54:43.122Z,99639.63
2023-05-14T13:57:47.325Z,99639.47
2023-05-14T14:00:50.176Z,99634.53
2023-05-14T14:03:53.025Z,99636.69
2023-05-14T14:06:55.984Z,99638.56
2023-05-14T14:10:01.501Z,99632.97
2023-05-14T14:13:05.580Z,99619.97
2023-05-14T14:16:08.461Z,99625.75
2023-05-14T14:19:11.363Z,99630.94
2023-05-14T14:22:17.317Z,99624.38
2023-05-14T14:25:20.063Z,99630.41
2023-05-14T14:28:24.264Z,99627.06
2023-05-14T14:31:27.008Z,99632.44
2023-05-14T14:34:29.854Z,99632.72
2023-05-14T14:37:32.639Z,99626.69
2023-05-14T14:40:35.683Z,99621.94
2023-05-14T14:43:40.362Z,99629.56
2023-05-14T14:46:43.958Z,99642.53
2023-05-14T14:49:46.691Z,99629.56
2023-05-14T14:52:49.483Z,99629.56
2023-05-14T14:55:52.570Z,99631.03
2023-05-14T14:58:56.701Z,99623.16
2023-05-14T15:01:59.625Z,99631.88
2023-05-14T15:05:02.388Z,99630.69
2023-05-14T15:08:05.530Z,99628.00
2023-05-14T15:11:08.714Z,99635.06
2023-05-14T15:14:13.257Z,99630.03
2023-05-14T15:17:16.118Z,99634.41
2023-05-14T15:20:19.123Z,99638.94
2023-05-14T15:23:21.828Z,99633.41
2023-05-14T15:26:24.672Z,99633.19
2023-05-14T15:29:28.800Z,99628.16
2023-05-14T15:32:31.784Z,99626.34
2023-05-14T15:35:34.558Z,99626.97
2023-05-14T15:38:37.260Z,99633.41
2023-05-14T15:41:40.063Z,99628.66
2023-05-14T15:44:44.144Z,99622.63
2023-05-14T15:47:46.983Z,99626.78
2023-05-14T15:50:50.111Z,99636.34
2023-05-14T15:53:53.826Z,99628.22
2023-05-14T15:56:56.798Z,99623.47
2023-05-14T16:00:00.976Z,99627.53
2023-05-14T16:03:03.804Z,99628.38
2023-05-14T16:06:06.931Z,99625.53
2023-05-14T16:09:09.702Z,99634.44
2023-05-14T16:12:12.558Z,99622.47
2023-05-14T16:15:16.827Z,99631.25
2023-05-14T16:18:20.654Z,99631.81
2023-05-14T16:21:23.413Z,99627.00
2023-05-14T16:24:27.777Z,99623.81
2023-05-14T16:27:30.531Z,99631.19
2023-05-14T16:30:34.750Z,99623.47
2023-05-14T16:33:38.446Z,99618.41
2023-05-14T16:36:41.271Z,99612.31
2023-05-14T16:39:44.212Z,99629.03
2023-05-14T16:42:49.158Z,99631.09
2023-05-14T16:45:53.728Z,99630.28
2023-05-14T16:48:56.826Z,99628.78
2023-05-14T16:51:59.609Z,99626.47
2023-05-14T16:55:02.347Z,99618.28
2023-05-14T16:58:05.162Z,99626.91
2023-05-14T17:01:10.074Z,99635.78
2023-05-14T17:04:13.144Z,99631.09
2023-05-14T17:07:15.936Z,99633.09
2023-05-14T17:10:18.862Z,99635.28
2023-05-14T17:13:21.626Z,99639.16
2023-05-14T17:16:26.168Z,99635.28
2023-05-14T17:19:29.078Z,99638.31
2023-05-14T17:22:31.869Z,99637.59
2023-05-14T17:25:34.677Z,99641.72
2023-05-14T17:28:37.473Z,99648.81
2023-05-14T17:31:41.578Z,99652.63
2023-05-14T17:34:44.342Z,99648.91
2023-05-14T17:37:47.171Z,99656.91
2023-05-14T17:40:50.060Z,99658.78
2023-05-14T17:43:53.181Z,99648.91
2023-05-14T17:46:57.494Z,99660.53
2023-05-14T17:50:00.340Z,99663.59
2023-05-14T17:53:03.104Z,99654.69
2023-05-14T17:56:06.390Z,99657.31
2023-05-14T17:59:09.211Z,99659.63
2023-05-14T18:02:15.889Z,99660.19
2023-05-14T18:05:20.746Z,99653.91
2023-05-14T18:08:25.642Z,99652.97
2023-05-14T18:11:36.304Z,99660.28
2023-05-14T18:14:39.114Z,99661.63
2023-05-14T18:17:43.335Z,99665.84
2023-05-14T18:20:46.113Z,99667.09
2023-05-14T18:23:48.946Z,99661.84
2023-05-14T18:26:51.758Z,99663.72
2023-05-14T18:29:54.711Z,99670.34
2023-05-14T18:32:59.763Z,99671.06
2023-05-14T18:36:03.582Z,99665.06
2023-05-14T18:39:06.303Z,99658.06
2023-05-14T18:42:10.053Z,99665.34
2023-05-14T18:45:13.969Z,99666.56
2023-05-14T18:48:18.132Z,99665.75
2023-05-14T18:51:20.963Z,99675.66
2023-05-14T18:54:23.762Z,99679.84
2023-05-14T18:57:29.179Z,99664.50
2023-05-14T19:00:31.985Z,99668.81
2023-05-14T19:03:36.179Z,99678.28
2023-05-14T19:06:40.345Z,99680.84
2023-05-14T19:09:43.086Z,99675.88
2023-05-14T19:12:47.258Z,99682.00
2023-05-14T19:15:50.038Z,99675.59
2023-05-14T19:18:54.576Z,99676.22
2023-05-14T19:21:57.443Z,99675.22
2023-05-14T19:25:00.286Z,99677.03
2023-05-14T19:28:03.763Z,99675.88
2023-05-14T19:31:06.604Z,99662.00
2023-05-14T19:34:11.293Z,99670.75
2023-05-14T19:37:14.167Z,99666.25
2023-05-14T19:40:17.013Z,99665.53
2023-05-14T19:43:20.033Z,99658.81
2023-05-14T19:46:22.827Z,99664.19
2023-05-14T19:49:26.934Z,99660.84
2023-05-14T19:52:29.704Z,99659.38
2023-05-14T19:55:32.469Z,99656.16
2023-05-14T19:58:35.288Z,99657.25
2023-05-14T20:01:39.095Z,99654.31
2023-05-14T20:04:43.334Z,99664.63
2023-05-14T20:07:49.012Z,99658.84
2023-05-14T20:10:51.839Z,99653.03
2023-05-14T20:13:54.628Z,99650.50
2023-05-14T20:16:58.051Z,99658.69
2023-05-14T20:20:02.560Z,99657.25
2023-05-14T20:23:05.360Z,99657.75
2023-05-14T20:26:08.160Z,99665.09
2023-05-14T20:29:14.376Z,99663.69
2023-05-14T20:32:17.183Z,99663.09
2023-05-14T20:35:21.371Z,99665.88
2023-05-14T20:38:25.751Z,99659.28
2023-05-14T20:41:28.550Z,99661.63
2023-05-14T20:44:31.406Z,99652.50
2023-05-14T20:47:35.775Z,99651.63
2023-05-14T20:50:40.008Z,99660.13
2023-05-14T20:53:42.881Z,99649.59
2023-05-14T20:56:45.720Z,99656.63
2023-05-14T20:59:49.084Z,99656.44
2023-05-14T21:02:52.102Z,99657.41
2023-05-14T21:05:57.093Z,99655.66
2023-05-14T21:08:59.850Z,99651.78
2023-05-14T21:12:02.627Z,99658.75
2023-05-14T21:15:05.832Z,99649.34
2023-05-14T21:18:08.675Z,99651.63
2023-05-14T21:21:12.900Z,99656.25
2023-05-14T21:24:16.839Z,99653.09
2023-05-14T21:27:19.661Z,99652.25
2023-05-14T21:30:22.807Z,99651.41
2023-05-14T21:33:25.734Z,99651.41
2023-05-14T21:36:30.110Z,99656.25
2023-05-14T21:39:33.156Z,99660.78
2023-05-14T21:42:36.025Z,99647.06
2023-05-14T21:45:38.831Z,99649.91
2023-05-14T21:48:41.653Z,99643.72
2023-05-14T21:51:45.880Z,99640.84
2023-05-14T21:54:48.730Z,99642.00
2023-05-14T21:57:51.498Z,99641.66
2023-05-14T22:00:54.321Z,99639.34
2023-05-14T22:03:58.049Z,99639.81
2023-05-14T22:07:02.782Z,99642.19
2023-05-14T22:10:05.840Z,99638.31
2023-05-14T22:13:08.612Z,99629.94
2023-05-14T22:16:13.761Z,99618.72
2023-05-14T22:19:17.587Z,99628.75
2023-05-14T22:22:21.869Z,99626.59
2023-05-14T22:25:24.963Z,99621.53
2023-05-14T22:28:27.962Z,99623.38
2023-05-14T22:31:30.798Z,99626.91
2023-05-14T22:34:33.522Z,99624.72
2023-05-14T22:37:37.730Z,99626.59
2023-05-14T22:40:40.566Z,99622.22
2023-05-14T22:43:43.353Z,99621.88
2023-05-14T22:46:46.148Z,99620.88
2023-05-14T22:49:49.017Z,99618.50
2023-05-14T22:52:53.168Z,99617.69
2023-05-14T22:55:55.924Z,99624.25
2023-05-14T22:59:00.355Z,99621.38
2023-05-14T23:02:03.252Z,99627.41
2023-05-14T23:05:06.409Z,99627.59
2023-05-14T23:08:10.600Z,99628.25
2023-05-14T23:11:13.347Z,99629.25
2023-05-14T23:14:17.919Z,99621.53
2023-05-14T23:17:20.784Z,99630.28
2023-05-14T23:20:23.547Z,99615.19
2023-05-14T23:23:27.759Z,99615.19
2023-05-14T23:26:30.524Z,99612.31
2023-05-14T23:29:33.337Z,99617.31
2023-05-14T23:32:36.151Z,99616.16
2023-05-14T23:35:39.327Z,99618.19
2023-05-14T23:38:44.583Z,99611.81
2023-05-14T23:41:48.395Z,99619.53
2023-05-14T23:44:51.193Z,99627.66
2023-05-14T23:47:54.592Z,99625.91
2023-05-14T23:50:57.358Z,99623.28
2023-05-14T23:54:01.496Z,99615.97
2023-05-14T23:57:04.360Z,99621.88
